메인 페이지
METAR-TAF:

METAR-TAF

공항 :

칼리스펠, 몬태나, 미국

위도: 48-18-15N, 경도: 114-15-49W, 고도: 906m

현재 날씨관측

예보는 53분 전, 09:55시(UTC)에 발표되었습니다.
무풍
온도 -8°C
습도 85%
기압 1025 hPa
시정: 16.1km
고도 4100ft 상공 흐림

METAR: KGPI 180955Z AUTO 00000KT 10SM OVC041 M08/M10 A3026 RMK AO2 SLP287 T10781100 TSNO

시각: 03:48 (10:48 UTC)

예보

예보는 5 시간 28분 전, 05:20시(UTC)에 발표되었습니다.
예보 대상 시간: 18일 06시부터 19일 06시까지 (UTC)
3kt
시정: 10km
고도 7000ft 상공 구름 보통
고도 10000ft 상공 구름 많음
18일 1000시부터 (UTC)
북동2kt
시정: 10km
고도 4000ft 상공 흐림
시계 내 소나기
18일 2100시부터 (UTC)
남남동6kt
시정: 8.0km
고도 3000ft 상공 구름 많음
약한눈

TAF: KGPI 180520Z 1806/1906 26003KT P6SM SCT070 BKN100 FM181000 04002KT P6SM VCSH OVC040 FM182100 15006KT 5SM -SN BKN030

4,000개 이상의 공항 관측 자료 및 예보 (METAR 및 TAF 보고).

지도상에서 검색 가능한 기상관측소가 노란 점과 빨간 점으로 표시되어 있습니다.

기상관측소 명을 보려면 표시 위로 마우스를 이동하세요.

날씨 관측과 예보를 보려면 클릭하세요.

지도 변경 : 확대하려면 엑스 표시가 있는 녹색 버튼, 축소하려면 빼기 표시가 있는 녹색 버튼, 다음 페이지의 지도를 보려면 녹색 화살표를 클릭하세요.


METAR-TAF: